Time;durP1;ratioP1;P1;durP2;ratioP2;P2;SDS_P1;SDS_P2;PMS_P1;PMS_P2;Temp;Humidity;BMP_temperature;BMP_pressure;BME280_temperature;BME280_humidity;BME280_pressure;Samples;Min_cycle;Max_cycle;Signal;HPM_P1;HPM_P2
2022/12/08 00:02:05;;;;;;;;;28.33;19.33;;;;;;;;5117864;27;45879;-64
2022/12/08 00:09:20;;;;;;;;;30.00;24.33;;;;;;;;5124762;27;45937;-64
2022/12/08 00:09:59;;;;;;;;;33.67;29.00;;;;;;;;5117516;27;45848;-64
2022/12/08 00:12:24;;;;;;;;;24.33;20.67;;;;;;;;5117921;27;45309;-64
2022/12/08 00:14:50;;;;;;;;;28.00;26.33;;;;;;;;5118228;27;45520;-64
2022/12/08 00:17:16;;;;;;;;;32.33;25.33;;;;;;;;5118238;27;45445;-64
2022/12/08 00:19:41;;;;;;;;;35.00;26.67;;;;;;;;5120663;27;46669;-64
2022/12/08 00:22:07;;;;;;;;;29.33;25.33;;;;;;;;5117905;27;45367;-64
2022/12/08 00:24:34;;;;;;;;;27.33;24.33;;;;;;;;5118959;27;45388;-64
2022/12/08 00:26:59;;;;;;;;;32.00;28.33;;;;;;;;5119478;27;45326;-64
2022/12/08 00:29:25;;;;;;;;;27.00;24.00;;;;;;;;5119083;27;45520;-65
2022/12/08 00:31:50;;;;;;;;;27.33;19.67;;;;;;;;5118706;27;45499;-64
2022/12/08 00:34:15;;;;;;;;;26.67;18.67;;;;;;;;5118411;27;45332;-64
2022/12/08 00:36:41;;;;;;;;;32.00;19.67;;;;;;;;5119404;27;45521;-64
2022/12/08 00:39:06;;;;;;;;;29.00;25.00;;;;;;;;5118476;27;46547;-65
2022/12/08 00:44:17;;;;;;;;;25.00;21.00;;;;;;;;5119171;27;45329;-64
2022/12/08 00:46:42;;;;;;;;;23.33;22.33;;;;;;;;5119041;27;45428;-64
2022/12/08 00:49:08;;;;;;;;;27.00;20.33;;;;;;;;5118874;27;46053;-64
2022/12/08 00:51:33;;;;;;;;;28.00;22.00;;;;;;;;5117096;27;45345;-64
2022/12/08 00:53:59;;;;;;;;;29.33;23.33;;;;;;;;5118423;27;45379;-64
2022/12/08 00:56:24;;;;;;;;;32.00;24.00;;;;;;;;5118491;27;45387;-64
2022/12/08 00:58:50;;;;;;;;;31.67;20.33;;;;;;;;5118687;27;45810;-64
2022/12/08 01:01:15;;;;;;;;;22.67;20.33;;;;;;;;5118816;27;45412;-65
2022/12/08 01:03:41;;;;;;;;;30.33;22.67;;;;;;;;5118856;27;45228;-64
2022/12/08 01:06:07;;;;;;;;;24.00;18.67;;;;;;;;5118812;27;45376;-64
2022/12/08 01:08:32;;;;;;;;;28.67;23.00;;;;;;;;5117264;27;46497;-64
2022/12/08 01:11:04;;;;;;;;;27.33;23.00;;;;;;;;5118465;27;45233;-64
2022/12/08 01:13:29;;;;;;;;;30.00;24.00;;;;;;;;5118531;27;45357;-64
2022/12/08 01:15:54;;;;;;;;;25.00;20.33;;;;;;;;5118762;27;45351;-64
2022/12/08 01:18:19;;;;;;;;;36.33;24.67;;;;;;;;5118044;27;45477;-64
2022/12/08 01:20:45;;;;;;;;;34.33;26.00;;;;;;;;5118200;27;45458;-64
2022/12/08 01:23:10;;;;;;;;;29.33;19.00;;;;;;;;5118085;27;45255;-64
2022/12/08 01:25:36;;;;;;;;;22.33;18.00;;;;;;;;5118072;27;45335;-65
2022/12/08 01:28:01;;;;;;;;;26.67;22.00;;;;;;;;5117761;27;45606;-65
2022/12/08 01:30:26;;;;;;;;;30.33;21.67;;;;;;;;5117861;27;45487;-64
2022/12/08 01:32:51;;;;;;;;;23.00;21.00;;;;;;;;5118558;27;45178;-64
2022/12/08 01:35:16;;;;;;;;;27.33;23.67;;;;;;;;5118487;27;45337;-64
2022/12/08 01:37:42;;;;;;;;;28.67;26.67;;;;;;;;5118177;27;46513;-64
2022/12/08 01:40:07;;;;;;;;;33.67;26.00;;;;;;;;5118009;27;45424;-64
2022/12/08 01:42:33;;;;;;;;;29.33;25.00;;;;;;;;5117078;27;45556;-65
2022/12/08 01:45:03;;;;;;;;;21.67;21.33;;;;;;;;5118397;27;45623;-64
2022/12/08 01:47:31;;;;;;;;;29.33;24.67;;;;;;;;5117982;27;45671;-65
2022/12/08 01:49:56;;;;;;;;;27.67;22.00;;;;;;;;5117680;27;45726;-65
2022/12/08 01:52:28;;;;;;;;;32.00;24.33;;;;;;;;5118227;27;45419;-64
2022/12/08 01:55:02;;;;;;;;;30.33;25.33;;;;;;;;5118295;27;45351;-64
2022/12/08 01:57:30;;;;;;;;;31.33;22.33;;;;;;;;5117295;27;47664;-65
2022/12/08 01:59:59;;;;;;;;;25.33;22.67;;;;;;;;5116898;27;46210;-65
2022/12/08 02:02:28;;;;;;;;;26.67;22.00;;;;;;;;5117925;27;45441;-65
2022/12/08 02:04:53;;;;;;;;;27.33;19.00;;;;;;;;5121388;27;45230;-64
2022/12/08 02:07:19;;;;;;;;;22.00;19.00;;;;;;;;5121333;27;46505;-65
2022/12/08 02:09:45;;;;;;;;;27.67;22.67;;;;;;;;5121316;27;45905;-64
2022/12/08 02:12:10;;;;;;;;;26.33;21.33;;;;;;;;5121102;27;45291;-65
2022/12/08 02:14:35;;;;;;;;;22.00;21.67;;;;;;;;5121780;27;45257;-64
2022/12/08 02:17:26;;;;;;;;;27.67;22.33;;;;;;;;5108148;27;45523;-65
2022/12/08 02:19:52;;;;;;;;;28.33;23.33;;;;;;;;5120257;27;45336;-64
2022/12/08 02:22:36;;;;;;;;;43.33;35.00;;;;;;;;5121307;27;45354;-65
2022/12/08 02:25:10;;;;;;;;;19.67;18.67;;;;;;;;5119038;27;45511;-65
2022/12/08 02:27:53;;;;;;;;;20.00;19.00;;;;;;;;5120257;27;45472;-65
2022/12/08 02:30:20;;;;;;;;;22.67;20.33;;;;;;;;5120746;27;45249;-65
2022/12/08 02:32:58;;;;;;;;;27.00;20.33;;;;;;;;5120277;27;45589;-65
2022/12/08 02:35:32;;;;;;;;;30.33;21.67;;;;;;;;5121293;27;45912;-65
2022/12/08 02:38:00;;;;;;;;;27.67;22.67;;;;;;;;5120643;27;45441;-65
2022/12/08 02:40:31;;;;;;;;;22.00;18.00;;;;;;;;5120516;27;45428;-65
2022/12/08 02:43:00;;;;;;;;;27.00;21.33;;;;;;;;5121110;27;45436;-65
2022/12/08 02:45:38;;;;;;;;;26.67;20.67;;;;;;;;5120887;27;45509;-65
2022/12/08 02:48:04;;;;;;;;;27.00;20.33;;;;;;;;5120484;27;45662;-65
2022/12/08 02:50:29;;;;;;;;;24.00;18.33;;;;;;;;5111479;27;45221;-65
2022/12/08 02:52:55;;;;;;;;;26.67;20.33;;;;;;;;5100272;27;45813;-65
2022/12/08 02:55:24;;;;;;;;;23.00;20.00;;;;;;;;5100525;27;45189;-65
2022/12/08 02:58:10;;;;;;;;;32.33;24.67;;;;;;;;5099962;27;46455;-65
2022/12/08 03:01:01;;;;;;;;;25.33;20.33;;;;;;;;5092898;27;45694;-65
2022/12/08 03:03:34;;;;;;;;;22.33;19.00;;;;;;;;5036919;28;45404;-65
2022/12/08 03:05:59;;;;;;;;;24.00;19.00;;;;;;;;5037172;28;45587;-65
2022/12/08 03:08:44;;;;;;;;;30.33;23.33;;;;;;;;5036645;28;46160;-64
2022/12/08 03:11:14;;;;;;;;;20.67;20.33;;;;;;;;5036789;28;45474;-65
2022/12/08 03:13:44;;;;;;;;;22.00;19.33;;;;;;;;5036744;28;45394;-64
2022/12/08 03:16:11;;;;;;;;;20.67;19.00;;;;;;;;5052775;28;45491;-65
2022/12/08 03:18:38;;;;;;;;;29.00;21.00;;;;;;;;5056982;28;46153;-65
2022/12/08 03:21:05;;;;;;;;;19.33;18.00;;;;;;;;5056017;28;45356;-65
2022/12/08 03:23:30;;;;;;;;;34.00;26.33;;;;;;;;5056517;28;45434;-65
2022/12/08 03:25:59;;;;;;;;;24.67;18.67;;;;;;;;5057011;28;45376;-65
2022/12/08 03:28:24;;;;;;;;;27.67;23.67;;;;;;;;5056401;28;45364;-64
2022/12/08 03:30:53;;;;;;;;;23.33;21.67;;;;;;;;5056736;28;45504;-64
2022/12/08 03:33:22;;;;;;;;;29.67;20.00;;;;;;;;5056018;28;45523;-65
2022/12/08 03:35:48;;;;;;;;;22.67;21.33;;;;;;;;5056342;28;45467;-64
2022/12/08 03:38:14;;;;;;;;;21.67;14.33;;;;;;;;5055622;28;45463;-65
2022/12/08 03:40:39;;;;;;;;;23.67;19.00;;;;;;;;5057968;28;45311;-64
2022/12/08 03:43:05;;;;;;;;;23.33;21.33;;;;;;;;5058471;28;45304;-65
2022/12/08 03:45:30;;;;;;;;;23.00;21.00;;;;;;;;5058990;28;45308;-64
2022/12/08 03:47:55;;;;;;;;;32.33;25.00;;;;;;;;5058402;28;46334;-65
2022/12/08 03:50:21;;;;;;;;;31.00;24.33;;;;;;;;5062889;27;45935;-65
2022/12/08 03:52:46;;;;;;;;;19.67;16.33;;;;;;;;5058608;28;45419;-65
2022/12/08 03:55:12;;;;;;;;;26.00;22.00;;;;;;;;5058865;28;45526;-64
2022/12/08 03:57:37;;;;;;;;;29.00;21.67;;;;;;;;5058125;28;45474;-64
2022/12/08 04:00:03;;;;;;;;;35.67;24.00;;;;;;;;5058365;28;45407;-64
2022/12/08 04:02:29;;;;;;;;;27.67;25.33;;;;;;;;5058633;28;45482;-64
2022/12/08 04:04:54;;;;;;;;;29.00;21.33;;;;;;;;5062978;28;45407;-64
2022/12/08 04:07:19;;;;;;;;;18.33;13.33;;;;;;;;5078284;27;45449;-65
2022/12/08 04:09:44;;;;;;;;;29.00;20.00;;;;;;;;5077851;27;45732;-64
2022/12/08 04:12:10;;;;;;;;;24.67;21.00;;;;;;;;5078159;28;45444;-65
2022/12/08 04:14:35;;;;;;;;;24.33;23.00;;;;;;;;5078559;27;45524;-64
2022/12/08 04:17:00;;;;;;;;;28.67;22.33;;;;;;;;5078285;27;45269;-65
2022/12/08 04:19:25;;;;;;;;;23.33;21.33;;;;;;;;5078478;27;45371;-64
2022/12/08 04:21:51;;;;;;;;;27.00;23.00;;;;;;;;5098502;27;45256;-64
2022/12/08 04:24:16;;;;;;;;;29.00;23.67;;;;;;;;5116400;27;45437;-64
2022/12/08 04:26:41;;;;;;;;;29.33;24.00;;;;;;;;5114395;27;46050;-64
2022/12/08 04:29:06;;;;;;;;;23.33;22.33;;;;;;;;5119105;27;45153;-65
2022/12/08 04:31:31;;;;;;;;;27.33;23.33;;;;;;;;5119600;27;45201;-64
2022/12/08 04:33:57;;;;;;;;;25.33;21.00;;;;;;;;5119328;27;45264;-64
2022/12/08 04:36:22;;;;;;;;;29.67;23.00;;;;;;;;5119101;27;45449;-64
2022/12/08 04:38:47;;;;;;;;;28.67;24.33;;;;;;;;5117401;27;45352;-65
2022/12/08 04:41:12;;;;;;;;;31.33;23.00;;;;;;;;5119152;27;45250;-64
2022/12/08 04:43:38;;;;;;;;;32.00;25.00;;;;;;;;5101416;27;45362;-64
2022/12/08 04:46:07;;;;;;;;;30.67;28.00;;;;;;;;5098267;27;47505;-64
2022/12/08 04:48:32;;;;;;;;;47.00;37.00;;;;;;;;5098147;27;45299;-64
2022/12/08 04:50:57;;;;;;;;;27.00;24.33;;;;;;;;5098518;27;45650;-64
2022/12/08 04:53:22;;;;;;;;;34.00;28.33;;;;;;;;5105365;27;45432;-65
2022/12/08 04:55:48;;;;;;;;;38.67;25.67;;;;;;;;5118619;27;46672;-64
2022/12/08 04:58:15;;;;;;;;;31.67;28.33;;;;;;;;5111797;27;45508;-64
2022/12/08 05:00:40;;;;;;;;;29.67;28.00;;;;;;;;5098276;27;45417;-65
2022/12/08 05:03:06;;;;;;;;;30.67;23.67;;;;;;;;5104673;27;45513;-64
2022/12/08 05:05:31;;;;;;;;;34.00;31.00;;;;;;;;5118694;27;46435;-65
2022/12/08 05:07:56;;;;;;;;;39.67;29.67;;;;;;;;5118584;27;45465;-64
2022/12/08 05:10:21;;;;;;;;;27.67;22.00;;;;;;;;5118429;27;45379;-64
2022/12/08 05:12:47;;;;;;;;;36.67;31.67;;;;;;;;5118766;27;45435;-64
2022/12/08 05:15:12;;;;;;;;;23.67;23.67;;;;;;;;5113884;27;45511;-64
2022/12/08 05:17:37;;;;;;;;;38.33;29.67;;;;;;;;5097902;27;45374;-64
2022/12/08 05:20:02;;;;;;;;;32.33;24.67;;;;;;;;5098124;27;45268;-64
2022/12/08 05:22:28;;;;;;;;;27.67;27.67;;;;;;;;5097994;27;45368;-64
2022/12/08 05:24:53;;;;;;;;;35.00;26.33;;;;;;;;5097623;27;46521;-64
2022/12/08 05:27:18;;;;;;;;;37.67;26.33;;;;;;;;5097696;27;45362;-65
2022/12/08 05:29:43;;;;;;;;;34.67;25.33;;;;;;;;5100162;27;45288;-65
2022/12/08 05:32:08;;;;;;;;;34.00;27.67;;;;;;;;5117707;27;45392;-64
2022/12/08 05:34:34;;;;;;;;;44.67;29.33;;;;;;;;5118009;27;46415;-65
2022/12/08 05:36:59;;;;;;;;;26.33;22.33;;;;;;;;5118209;27;45325;-65
2022/12/08 05:39:24;;;;;;;;;27.00;25.67;;;;;;;;5117569;27;45310;-64
2022/12/08 05:41:49;;;;;;;;;39.67;32.00;;;;;;;;5118494;27;45371;-65
2022/12/08 05:44:15;;;;;;;;;35.67;31.00;;;;;;;;5117762;27;46613;-65
2022/12/08 05:46:40;;;;;;;;;27.67;22.67;;;;;;;;5117574;27;45439;-64
2022/12/08 05:49:05;;;;;;;;;36.33;27.67;;;;;;;;5117827;27;45384;-65
2022/12/08 05:51:30;;;;;;;;;23.33;17.00;;;;;;;;5097813;27;45644;-65
2022/12/08 05:53:56;;;;;;;;;34.67;25.67;;;;;;;;5109161;27;46580;-65
2022/12/08 05:56:21;;;;;;;;;24.33;23.00;;;;;;;;5118004;27;45430;-65
2022/12/08 05:58:46;;;;;;;;;35.00;28.67;;;;;;;;5117601;27;45443;-65
2022/12/08 06:01:22;;;;;;;;;34.33;25.33;;;;;;;;5118218;27;45339;-65
2022/12/08 06:03:47;;;;;;;;;31.33;31.00;;;;;;;;5117976;27;47550;-64
2022/12/08 06:06:12;;;;;;;;;21.67;17.33;;;;;;;;5110434;27;45321;-64
2022/12/08 06:08:38;;;;;;;;;27.33;21.33;;;;;;;;5097384;27;45433;-64
2022/12/08 06:11:03;;;;;;;;;43.00;37.33;;;;;;;;5109614;27;45888;-63
2022/12/08 06:13:28;;;;;;;;;39.67;27.00;;;;;;;;5117280;27;46350;-64
2022/12/08 06:15:53;;;;;;;;;28.67;24.33;;;;;;;;5116515;27;45410;-64
2022/12/08 06:18:18;;;;;;;;;34.33;30.33;;;;;;;;5117588;27;45361;-64
2022/12/08 06:20:44;;;;;;;;;110.25;96.50;;;;;;;;5117063;27;45323;-63
2022/12/08 06:23:09;;;;;;;;;35.67;30.00;;;;;;;;5137892;27;46131;-63
2022/12/08 06:25:34;;;;;;;;;41.33;32.33;;;;;;;;5119191;27;45368;-63
2022/12/08 06:27:59;;;;;;;;;49.33;36.67;;;;;;;;5116603;27;45497;-63
2022/12/08 06:30:26;;;;;;;;;40.33;30.33;;;;;;;;5116985;27;45406;-64
2022/12/08 06:32:51;;;;;;;;;38.00;25.33;;;;;;;;5117236;27;46140;-64
2022/12/08 06:35:16;;;;;;;;;34.33;25.00;;;;;;;;5116695;27;45367;-64
2022/12/08 06:37:41;;;;;;;;;52.67;39.00;;;;;;;;5117227;27;45408;-64
2022/12/08 06:40:07;;;;;;;;;31.67;28.00;;;;;;;;5117482;27;45485;-64
2022/12/08 06:42:45;;;;;;;;;27.00;25.67;;;;;;;;5115919;27;46518;-64
2022/12/08 06:45:12;;;;;;;;;33.33;27.67;;;;;;;;5116706;27;45422;-64
2022/12/08 06:47:37;;;;;;;;;37.67;27.33;;;;;;;;5116743;27;45543;-64
2022/12/08 06:50:02;;;;;;;;;36.33;26.00;;;;;;;;5118714;27;45443;-64
2022/12/08 06:52:28;;;;;;;;;31.00;25.67;;;;;;;;5120592;27;46368;-64
2022/12/08 06:54:53;;;;;;;;;37.33;29.33;;;;;;;;5119502;27;45260;-64
2022/12/08 06:57:18;;;;;;;;;35.67;26.33;;;;;;;;5120264;27;45322;-64
2022/12/08 06:59:43;;;;;;;;;27.00;26.00;;;;;;;;5120362;27;45368;-64
2022/12/08 07:02:09;;;;;;;;;34.00;26.33;;;;;;;;5120107;27;45432;-64
2022/12/08 07:04:34;;;;;;;;;34.67;30.00;;;;;;;;5120355;27;45496;-64
2022/12/08 07:06:59;;;;;;;;;29.67;26.00;;;;;;;;5120273;27;45336;-64
2022/12/08 07:09:25;;;;;;;;;29.33;27.00;;;;;;;;5120377;27;45423;-64
2022/12/08 07:11:50;;;;;;;;;36.33;30.67;;;;;;;;5118648;27;47557;-64
2022/12/08 07:14:15;;;;;;;;;32.67;27.00;;;;;;;;5119942;27;45548;-64
2022/12/08 07:16:40;;;;;;;;;30.00;23.67;;;;;;;;5117375;27;45793;-64
2022/12/08 07:19:05;;;;;;;;;42.67;33.33;;;;;;;;5118337;27;45629;-64
2022/12/08 07:21:31;;;;;;;;;36.00;24.00;;;;;;;;5119822;27;45536;-64
2022/12/08 07:23:56;;;;;;;;;29.33;28.00;;;;;;;;5119958;27;45440;-64
2022/12/08 07:26:21;;;;;;;;;31.00;27.67;;;;;;;;5119946;27;45297;-64
2022/12/08 07:28:46;;;;;;;;;35.33;29.67;;;;;;;;5120311;27;45349;-64
2022/12/08 07:31:16;;;;;;;;;39.00;30.67;;;;;;;;5118870;27;46212;-64
2022/12/08 07:33:42;;;;;;;;;34.33;32.67;;;;;;;;5108688;27;45592;-64
2022/12/08 07:36:07;;;;;;;;;33.33;30.00;;;;;;;;5099324;27;45460;-63
2022/12/08 07:38:32;;;;;;;;;33.33;29.00;;;;;;;;5099269;27;45417;-63
2022/12/08 07:40:57;;;;;;;;;33.33;22.67;;;;;;;;5115119;27;46121;-63
2022/12/08 07:43:23;;;;;;;;;38.67;29.33;;;;;;;;5119998;27;45906;-64
2022/12/08 07:45:48;;;;;;;;;33.67;31.00;;;;;;;;5119495;27;45292;-63
2022/12/08 07:48:13;;;;;;;;;36.33;29.67;;;;;;;;5119999;27;45548;-64
2022/12/08 07:50:39;;;;;;;;;34.00;27.33;;;;;;;;5118720;27;46955;-64
2022/12/08 07:53:05;;;;;;;;;29.33;23.33;;;;;;;;5117841;27;45842;-63
2022/12/08 07:55:30;;;;;;;;;36.33;31.33;;;;;;;;5118474;27;45481;-64
2022/12/08 07:57:55;;;;;;;;;38.67;31.00;;;;;;;;5118470;27;45455;-64
2022/12/08 08:00:20;;;;;;;;;29.33;29.00;;;;;;;;5118223;27;46644;-63
2022/12/08 08:02:46;;;;;;;;;37.00;28.67;;;;;;;;5118674;27;45512;-64
2022/12/08 08:05:11;;;;;;;;;37.67;30.00;;;;;;;;5112989;27;45469;-64
2022/12/08 08:07:36;;;;;;;;;30.33;23.67;;;;;;;;5111579;27;45475;-64
2022/12/08 08:10:02;;;;;;;;;35.00;30.00;;;;;;;;5115929;27;46085;-63
2022/12/08 08:12:27;;;;;;;;;33.00;27.00;;;;;;;;5104638;27;46669;-63
2022/12/08 08:14:52;;;;;;;;;34.33;32.00;;;;;;;;5109552;27;45450;-63
2022/12/08 08:17:17;;;;;;;;;36.33;30.33;;;;;;;;5108695;27;45433;-63
2022/12/08 08:19:44;;;;;;;;;22.33;21.00;;;;;;;;5114871;27;46411;-63
2022/12/08 08:22:09;;;;;;;;;40.33;31.33;;;;;;;;5119111;27;45468;-63
2022/12/08 08:24:34;;;;;;;;;50.67;39.33;;;;;;;;5099894;27;45269;-63
2022/12/08 08:27:00;;;;;;;;;38.67;36.00;;;;;;;;5118136;27;45524;-64
2022/12/08 08:29:25;;;;;;;;;40.00;30.33;;;;;;;;5108226;27;45458;-64
2022/12/08 08:31:50;;;;;;;;;38.67;32.33;;;;;;;;5100072;27;45313;-64
2022/12/08 08:34:15;;;;;;;;;33.33;28.00;;;;;;;;5112878;27;45352;-64
2022/12/08 08:36:41;;;;;;;;;30.00;24.00;;;;;;;;5108366;27;45508;-63
2022/12/08 08:39:06;;;;;;;;;50.67;36.67;;;;;;;;5105040;27;46380;-63
2022/12/08 08:41:31;;;;;;;;;56.00;47.00;;;;;;;;5099838;27;45427;-64
2022/12/08 08:43:57;;;;;;;;;48.33;39.67;;;;;;;;5112179;27;45617;-63
2022/12/08 08:46:22;;;;;;;;;50.33;40.00;;;;;;;;5107921;27;45448;-62
2022/12/08 08:48:47;;;;;;;;;57.67;44.33;;;;;;;;5112847;27;45457;-63
2022/12/08 08:51:13;;;;;;;;;50.33;38.00;;;;;;;;5113206;27;45304;-64
2022/12/08 08:53:38;;;;;;;;;52.00;41.67;;;;;;;;5104554;27;45405;-64
2022/12/08 08:56:08;;;;;;;;;42.33;34.33;;;;;;;;5103631;27;45419;-64
2022/12/08 08:58:33;;;;;;;;;41.33;33.00;;;;;;;;5102616;27;45310;-64
2022/12/08 09:00:59;;;;;;;;;38.00;30.33;;;;;;;;5112097;27;45467;-64
2022/12/08 09:03:24;;;;;;;;;43.00;37.00;;;;;;;;5113495;27;45483;-64
2022/12/08 09:05:49;;;;;;;;;38.67;33.67;;;;;;;;5101617;27;45283;-64
2022/12/08 09:08:14;;;;;;;;;36.33;33.67;;;;;;;;5101500;27;45616;-64
2022/12/08 09:10:39;;;;;;;;;51.67;41.33;;;;;;;;5118365;27;45247;-64
2022/12/08 09:13:05;;;;;;;;;39.00;29.33;;;;;;;;5115256;27;45293;-64
2022/12/08 09:15:30;;;;;;;;;39.00;32.33;;;;;;;;5107759;27;45868;-63
2022/12/08 09:17:55;;;;;;;;;35.33;31.67;;;;;;;;5104110;27;46188;-64
2022/12/08 09:20:20;;;;;;;;;34.33;31.33;;;;;;;;5111227;27;45223;-64
2022/12/08 09:22:46;;;;;;;;;35.33;29.00;;;;;;;;5118344;27;45383;-64
2022/12/08 09:25:11;;;;;;;;;33.00;26.67;;;;;;;;5117696;27;45267;-64
2022/12/08 09:27:36;;;;;;;;;32.67;32.33;;;;;;;;5106075;27;45591;-64
2022/12/08 09:30:01;;;;;;;;;37.00;30.33;;;;;;;;5105912;27;45507;-63
2022/12/08 09:32:26;;;;;;;;;35.67;30.00;;;;;;;;5106813;27;45370;-63
2022/12/08 09:34:53;;;;;;;;;42.67;35.67;;;;;;;;5114771;27;45624;-63
2022/12/08 09:37:18;;;;;;;;;39.33;34.67;;;;;;;;5113916;27;46548;-64
2022/12/08 09:39:43;;;;;;;;;37.00;27.33;;;;;;;;5115834;27;45377;-64
2022/12/08 09:42:09;;;;;;;;;37.00;35.00;;;;;;;;5106843;27;45496;-64
2022/12/08 09:44:46;;;;;;;;;35.00;31.33;;;;;;;;5114665;27;45553;-64
2022/12/08 09:47:22;;;;;;;;;33.67;32.67;;;;;;;;5102594;27;45521;-64
2022/12/08 09:50:08;;;;;;;;;35.67;30.33;;;;;;;;5104454;27;45189;-64
2022/12/08 09:52:44;;;;;;;;;28.33;24.33;;;;;;;;5094412;27;45272;-64
2022/12/08 09:55:19;;;;;;;;;29.33;24.33;;;;;;;;5093186;27;45777;-63
2022/12/08 09:57:50;;;;;;;;;26.33;22.00;;;;;;;;5093636;27;47071;-63
2022/12/08 10:00:16;;;;;;;;;28.67;25.67;;;;;;;;5091465;27;45340;-63
2022/12/08 10:02:44;;;;;;;;;30.00;26.00;;;;;;;;5079827;27;45579;-63
2022/12/08 10:05:12;;;;;;;;;26.00;22.67;;;;;;;;5084728;27;45370;-61
2022/12/08 10:07:38;;;;;;;;;33.00;30.00;;;;;;;;5088693;27;46147;-61
2022/12/08 10:10:03;;;;;;;;;35.67;32.67;;;;;;;;5093843;27;45436;-61
2022/12/08 10:12:38;;;;;;;;;19.67;10.67;;;;;;;;5094992;27;45591;-61
2022/12/08 10:15:12;;;;;;;;;30.33;23.00;;;;;;;;5083709;27;45526;-61
2022/12/08 10:17:43;;;;;;;;;33.33;26.00;;;;;;;;5091912;27;45459;-63
2022/12/08 10:20:14;;;;;;;;;32.00;28.00;;;;;;;;5094233;27;45985;-63
2022/12/08 10:22:40;;;;;;;;;32.33;25.00;;;;;;;;5092527;27;46079;-63
2022/12/08 10:25:05;;;;;;;;;33.67;24.67;;;;;;;;5092441;27;45653;-63
2022/12/08 10:27:33;;;;;;;;;30.67;25.00;;;;;;;;5096151;27;45557;-64
2022/12/08 10:29:59;;;;;;;;;27.00;25.67;;;;;;;;5102736;27;45701;-63
2022/12/08 10:32:27;;;;;;;;;28.67;23.33;;;;;;;;5111409;27;45522;-63
2022/12/08 10:34:58;;;;;;;;;32.33;22.33;;;;;;;;5115974;27;45484;-63
2022/12/08 10:37:23;;;;;;;;;24.67;17.67;;;;;;;;5113024;27;46178;-63
2022/12/08 10:39:57;;;;;;;;;28.67;23.67;;;;;;;;5106182;27;45340;-63
2022/12/08 10:42:22;;;;;;;;;29.33;24.33;;;;;;;;5115246;27;45248;-63
2022/12/08 10:44:54;;;;;;;;;22.67;17.67;;;;;;;;5116488;27;45462;-63
2022/12/08 10:47:21;;;;;;;;;27.67;20.33;;;;;;;;5109912;27;46250;-63
2022/12/08 10:49:46;;;;;;;;;23.00;20.33;;;;;;;;5112534;27;45386;-63
2022/12/08 10:52:22;;;;;;;;;35.00;24.67;;;;;;;;5118919;27;45424;-63
2022/12/08 10:54:50;;;;;;;;;30.67;24.33;;;;;;;;5119022;27;45380;-63
2022/12/08 10:57:20;;;;;;;;;26.00;20.67;;;;;;;;5108924;27;45389;-64
2022/12/08 10:59:45;;;;;;;;;19.00;16.67;;;;;;;;5105333;27;45507;-63
2022/12/08 11:02:17;;;;;;;;;27.00;26.00;;;;;;;;5114737;27;45440;-63
2022/12/08 11:04:42;;;;;;;;;26.00;22.00;;;;;;;;5113983;27;45558;-63
2022/12/08 11:07:10;;;;;;;;;25.67;20.33;;;;;;;;5104533;27;46486;-63
2022/12/08 11:09:35;;;;;;;;;20.00;17.33;;;;;;;;5110305;27;45556;-63
2022/12/08 11:12:07;;;;;;;;;19.33;17.00;;;;;;;;5110141;27;45573;-63
2022/12/08 11:14:36;;;;;;;;;16.33;15.00;;;;;;;;5105146;27;45316;-64
2022/12/08 11:17:04;;;;;;;;;24.00;17.33;;;;;;;;5118969;27;46697;-64
2022/12/08 11:19:29;;;;;;;;;21.33;16.33;;;;;;;;5120120;27;45460;-64
2022/12/08 11:21:55;;;;;;;;;31.67;22.00;;;;;;;;5111043;27;46058;-63
2022/12/08 11:24:24;;;;;;;;;32.00;24.00;;;;;;;;5104642;27;45418;-63
2022/12/08 11:26:55;;;;;;;;;20.67;16.33;;;;;;;;5117299;27;46507;-63
2022/12/08 11:29:20;;;;;;;;;14.00;13.00;;;;;;;;5103652;27;45454;-63
2022/12/08 11:31:52;;;;;;;;;24.33;19.33;;;;;;;;5101150;27;45417;-63
2022/12/08 11:34:33;;;;;;;;;15.67;15.67;;;;;;;;5105542;27;45557;-63
2022/12/08 11:36:58;;;;;;;;;21.00;19.00;;;;;;;;5107742;27;46435;-63
2022/12/08 11:39:25;;;;;;;;;23.00;18.33;;;;;;;;5099584;27;45374;-63
2022/12/08 11:41:52;;;;;;;;;20.67;15.67;;;;;;;;5119273;27;45423;-63
2022/12/08 11:44:40;;;;;;;;;16.33;15.33;;;;;;;;5115624;27;45481;-64
2022/12/08 11:47:16;;;;;;;;;21.33;18.67;;;;;;;;5067754;28;45616;-63
2022/12/08 11:49:41;;;;;;;;;18.67;17.00;;;;;;;;5076348;28;45441;-64
2022/12/08 11:52:10;;;;;;;;;24.67;23.00;;;;;;;;5076526;28;45265;-64
2022/12/08 11:54:41;;;;;;;;;33.00;28.67;;;;;;;;5076720;28;45384;-64
2022/12/08 11:57:10;;;;;;;;;20.67;15.33;;;;;;;;5075911;28;45698;-64
2022/12/08 11:59:45;;;;;;;;;21.33;17.67;;;;;;;;5075663;28;45442;-64
2022/12/08 12:02:13;;;;;;;;;16.33;15.00;;;;;;;;5075877;28;45508;-63
2022/12/08 12:05:05;;;;;;;;;20.33;18.67;;;;;;;;5076603;27;46092;-63
2022/12/08 12:07:45;;;;;;;;;23.67;22.00;;;;;;;;5015301;28;46503;-63
2022/12/08 12:10:17;;;;;;;;;18.33;17.33;;;;;;;;5014164;28;45457;-63
2022/12/08 12:13:00;;;;;;;;;18.33;15.67;;;;;;;;5015707;28;45459;-63
2022/12/08 12:15:34;;;;;;;;;14.67;14.67;;;;;;;;5015556;28;45516;-63
2022/12/08 12:18:09;;;;;;;;;16.00;12.00;;;;;;;;5015029;28;46275;-63
2022/12/08 12:20:45;;;;;;;;;14.00;11.50;;;;;;;;5014377;28;45607;-63
2022/12/08 12:23:27;;;;;;;;;19.33;15.00;;;;;;;;5018082;28;45477;-63
2022/12/08 12:25:57;;;;;;;;;15.00;13.00;;;;;;;;5047621;28;45968;-63
2022/12/08 12:28:24;;;;;;;;;63.33;48.33;;;;;;;;5053102;28;46567;-63
2022/12/08 12:30:56;;;;;;;;;22.67;20.33;;;;;;;;5052563;28;45406;-63
2022/12/08 12:33:21;;;;;;;;;51.67;40.33;;;;;;;;5043833;28;45521;-64
2022/12/08 12:35:47;;;;;;;;;12.00;11.00;;;;;;;;5035670;28;45972;-64
2022/12/08 12:41:07;;;;;;;;;19.33;18.33;;;;;;;;5034896;28;45487;-64
2022/12/08 12:43:33;;;;;;;;;15.00;12.33;;;;;;;;5041467;28;45464;-63
2022/12/08 12:46:17;;;;;;;;;16.25;12.00;;;;;;;;5070505;28;45475;-64
2022/12/08 12:48:42;;;;;;;;;28.67;26.67;;;;;;;;5063230;28;45574;-64
2022/12/08 12:51:28;;;;;;;;;30.67;27.00;;;;;;;;5065549;28;45494;-63
2022/12/08 12:53:53;;;;;;;;;15.67;11.67;;;;;;;;5061218;28;45836;-63
2022/12/08 12:56:36;;;;;;;;;24.00;15.00;;;;;;;;5062938;28;45947;-64
2022/12/08 12:59:20;;;;;;;;;26.67;26.33;;;;;;;;5065660;28;46308;-64
2022/12/08 13:01:50;;;;;;;;;12.25;9.50;;;;;;;;5065622;28;45526;-64
2022/12/08 13:04:16;;;;;;;;;9.67;8.67;;;;;;;;5059765;28;45488;-63
2022/12/08 13:06:44;;;;;;;;;10.25;9.50;;;;;;;;5071976;28;45818;-63
2022/12/08 13:09:20;;;;;;;;;19.67;17.00;;;;;;;;5061433;28;45539;-63
2022/12/08 13:11:56;;;;;;;;;14.75;11.00;;;;;;;;5071429;28;45399;-63
2022/12/08 13:14:27;;;;;;;;;10.00;8.00;;;;;;;;5070943;28;45382;-63
2022/12/08 13:16:57;;;;;;;;;14.75;11.75;;;;;;;;5075554;28;45595;-63
2022/12/08 13:19:22;;;;;;;;;25.00;21.00;;;;;;;;5102225;27;47633;-63
2022/12/08 13:21:48;;;;;;;;;17.67;13.33;;;;;;;;5106646;27;45507;-63
2022/12/08 13:24:23;;;;;;;;;58.33;45.00;;;;;;;;5108113;27;45270;-63
2022/12/08 13:26:50;;;;;;;;;20.33;16.00;;;;;;;;5107016;27;45465;-63
2022/12/08 13:29:18;;;;;;;;;25.00;19.00;;;;;;;;5103789;27;46850;-63
2022/12/08 13:31:50;;;;;;;;;25.67;20.00;;;;;;;;5108581;27;45420;-63
2022/12/08 13:34:18;;;;;;;;;14.33;11.33;;;;;;;;5097072;27;45397;-63
2022/12/08 13:36:51;;;;;;;;;19.33;17.00;;;;;;;;5097864;27;45440;-63
2022/12/08 13:39:28;;;;;;;;;21.00;14.67;;;;;;;;5097382;27;45782;-63
2022/12/08 13:41:59;;;;;;;;;20.00;15.00;;;;;;;;5105256;27;45496;-63
2022/12/08 13:44:34;;;;;;;;;24.33;22.67;;;;;;;;5113637;27;45696;-64
2022/12/08 13:47:01;;;;;;;;;12.00;10.67;;;;;;;;5114027;27;45494;-64
2022/12/08 13:49:31;;;;;;;;;32.33;28.33;;;;;;;;5111905;27;45669;-64
2022/12/08 13:51:57;;;;;;;;;27.33;23.67;;;;;;;;5110676;27;45453;-64
2022/12/08 13:54:28;;;;;;;;;25.67;25.67;;;;;;;;5097788;27;45504;-63
2022/12/08 13:56:54;;;;;;;;;20.00;15.33;;;;;;;;5099589;27;45513;-63
2022/12/08 13:59:19;;;;;;;;;29.33;25.33;;;;;;;;5098042;27;46227;-64
2022/12/08 14:01:46;;;;;;;;;11.33;10.67;;;;;;;;5100828;27;45428;-63
2022/12/08 14:04:24;;;;;;;;;20.33;17.33;;;;;;;;5116688;27;45401;-63
2022/12/08 14:06:55;;;;;;;;;6.75;6.50;;;;;;;;5122041;27;45592;-63
2022/12/08 14:09:22;;;;;;;;;22.00;18.67;;;;;;;;5105099;27;47051;-63
2022/12/08 14:11:58;;;;;;;;;17.33;16.00;;;;;;;;5100802;27;45388;-63
2022/12/08 14:14:28;;;;;;;;;15.67;13.67;;;;;;;;5114378;27;45512;-63
2022/12/08 14:16:55;;;;;;;;;13.00;11.33;;;;;;;;5121138;27;45380;-63
2022/12/08 14:19:24;;;;;;;;;21.00;19.00;;;;;;;;5120280;27;45527;-63
2022/12/08 14:21:52;;;;;;;;;14.67;12.33;;;;;;;;5100042;27;45541;-63
2022/12/08 14:24:17;;;;;;;;;10.25;10.00;;;;;;;;5106334;27;45489;-63
2022/12/08 14:26:44;;;;;;;;;9.25;9.25;;;;;;;;5121324;27;45286;-63
2022/12/08 14:29:16;;;;;;;;;14.50;13.00;;;;;;;;5120958;27;45512;-63